createdAt,value
2018-09-05T00:01:57.026Z,15.81
2018-09-05T00:04:25.478Z,15.76
2018-09-05T00:06:53.973Z,15.72
2018-09-05T00:09:22.433Z,15.72
2018-09-05T00:11:50.920Z,15.62
2018-09-05T00:14:52.666Z,15.61
2018-09-05T00:17:21.157Z,15.59
2018-09-05T00:19:49.613Z,15.68
2018-09-05T00:22:18.017Z,15.71
2018-09-05T00:24:46.976Z,15.70
2018-09-05T00:27:15.554Z,15.59
2018-09-05T00:29:44.057Z,15.55
2018-09-05T00:32:12.662Z,15.51
2018-09-05T00:34:41.127Z,15.46
2018-09-05T00:37:09.643Z,15.44
2018-09-05T00:39:38.246Z,15.40
2018-09-05T00:42:07.205Z,15.36
2018-09-05T00:44:35.673Z,15.29
2018-09-05T00:47:04.205Z,15.22
2018-09-05T00:49:32.689Z,15.20
2018-09-05T00:52:01.133Z,15.22
2018-09-05T00:54:29.650Z,15.17
2018-09-05T00:56:58.085Z,15.16
2018-09-05T00:59:27.152Z,15.12
2018-09-05T01:01:55.565Z,15.07
2018-09-05T01:04:24.350Z,15.20
2018-09-05T01:06:52.985Z,15.24
2018-09-05T01:09:21.554Z,15.24
2018-09-05T01:11:50.018Z,15.20
2018-09-05T01:14:18.429Z,15.16
2018-09-05T01:16:47.871Z,15.14
2018-09-05T01:19:16.429Z,15.09
2018-09-05T01:21:45.706Z,15.08
2018-09-05T01:24:14.234Z,15.06
2018-09-05T01:26:42.694Z,15.01
2018-09-05T01:29:11.153Z,14.94
2018-09-05T01:31:39.667Z,14.89
2018-09-05T01:34:08.193Z,14.82
2018-09-05T01:36:36.688Z,14.74
2018-09-05T01:39:07.305Z,14.69
2018-09-05T01:41:35.930Z,14.65
2018-09-05T01:44:04.513Z,14.63
2018-09-05T01:46:32.933Z,14.61
2018-09-05T01:49:01.563Z,14.58
2018-09-05T01:51:32.998Z,14.54
2018-09-05T01:54:02.598Z,14.51
2018-09-05T01:56:31.089Z,14.51
2018-09-05T01:58:59.570Z,14.46
2018-09-05T02:01:28.033Z,14.46
2018-09-05T02:03:56.551Z,14.45
2018-09-05T02:06:25.111Z,14.43
2018-09-05T02:08:53.585Z,14.45
2018-09-05T02:11:22.053Z,14.41
2018-09-05T02:13:50.558Z,14.35
2018-09-05T02:16:19.077Z,14.33
2018-09-05T02:18:47.685Z,14.31
2018-09-05T02:21:16.210Z,14.25
2018-09-05T02:23:45.565Z,14.20
2018-09-05T02:26:14.080Z,14.18
2018-09-05T02:28:42.537Z,14.17
2018-09-05T02:31:11.090Z,14.16
2018-09-05T02:33:39.527Z,14.14
2018-09-05T02:36:08.007Z,14.14
2018-09-05T02:38:36.479Z,14.12
2018-09-05T02:41:05.328Z,14.10
2018-09-05T02:43:39.018Z,14.05
2018-09-05T02:46:07.760Z,14.02
2018-09-05T02:48:36.271Z,13.95
2018-09-05T02:51:05.309Z,13.94
2018-09-05T02:53:33.706Z,13.94
2018-09-05T02:56:02.214Z,13.94
2018-09-05T02:58:32.601Z,13.88
2018-09-05T03:01:01.151Z,13.92
2018-09-05T03:03:29.770Z,13.95
2018-09-05T03:05:58.477Z,13.93
2018-09-05T03:08:26.978Z,13.88
2018-09-05T03:10:55.447Z,13.79
2018-09-05T03:13:23.906Z,13.74
2018-09-05T03:15:52.408Z,13.65
2018-09-05T03:18:20.877Z,13.65
2018-09-05T03:20:49.365Z,13.65
2018-09-05T03:23:17.837Z,13.62
2018-09-05T03:25:47.116Z,13.56
2018-09-05T03:28:15.605Z,13.54
2018-09-05T03:30:44.964Z,13.56
2018-09-05T03:33:13.512Z,13.50
2018-09-05T03:35:42.002Z,13.50
2018-09-05T03:38:10.458Z,13.49
2018-09-05T03:40:39.163Z,13.48
2018-09-05T03:43:07.690Z,13.57
2018-09-05T03:45:36.081Z,13.56
2018-09-05T03:48:04.650Z,13.50
2018-09-05T03:50:33.105Z,13.48
2018-09-05T03:53:01.571Z,13.48
2018-09-05T03:55:30.062Z,13.45
2018-09-05T03:57:58.550Z,13.41
2018-09-05T04:00:31.133Z,13.53
2018-09-05T04:03:00.159Z,13.61
2018-09-05T04:05:28.695Z,13.60
2018-09-05T04:07:57.189Z,13.56
2018-09-05T04:10:25.670Z,13.52
2018-09-05T04:12:54.141Z,13.48
2018-09-05T04:15:22.675Z,13.40
2018-09-05T04:17:51.085Z,13.34
2018-09-05T04:20:19.617Z,13.29
2018-09-05T04:22:48.129Z,13.30
2018-09-05T04:25:16.534Z,13.29
2018-09-05T04:27:45.389Z,13.30
2018-09-05T04:30:13.882Z,13.31
2018-09-05T04:32:42.313Z,13.26
2018-09-05T04:35:10.798Z,13.24
2018-09-05T04:37:39.258Z,13.19
2018-09-05T04:40:07.762Z,13.17
2018-09-05T04:42:36.298Z,13.17
2018-09-05T04:45:04.787Z,13.12
2018-09-05T04:47:33.334Z,13.11
2018-09-05T04:50:01.746Z,13.11
2018-09-05T04:52:30.266Z,13.20
2018-09-05T04:54:58.738Z,13.27
2018-09-05T04:57:27.226Z,13.29
2018-09-05T04:59:55.674Z,13.28
2018-09-05T05:02:24.246Z,13.26
2018-09-05T05:04:52.725Z,13.29
2018-09-05T05:07:21.151Z,13.29
2018-09-05T05:09:49.650Z,13.35
2018-09-05T05:12:18.158Z,13.38
2018-09-05T05:14:47.062Z,13.41
2018-09-05T05:17:15.594Z,13.43
2018-09-05T05:19:44.081Z,13.48
2018-09-05T05:22:12.607Z,13.56
2018-09-05T05:24:41.008Z,13.62
2018-09-05T05:27:09.569Z,13.64
2018-09-05T05:29:37.970Z,13.64
2018-09-05T05:32:06.666Z,13.67
2018-09-05T05:34:35.185Z,13.72
2018-09-05T05:37:03.686Z,13.79
2018-09-05T05:39:32.121Z,13.89
2018-09-05T05:42:00.641Z,13.97
2018-09-05T05:44:29.117Z,14.05
2018-09-05T05:46:57.726Z,14.09
2018-09-05T05:49:26.174Z,14.12
2018-09-05T05:51:54.713Z,14.16
2018-09-05T05:54:23.214Z,14.21
2018-09-05T05:56:51.694Z,14.28
2018-09-05T05:59:20.198Z,14.34
2018-09-05T06:01:48.698Z,14.42
2018-09-05T06:04:17.162Z,14.51
2018-09-05T06:06:46.000Z,14.59
2018-09-05T06:09:14.550Z,14.70
2018-09-05T06:11:43.047Z,14.75
2018-09-05T06:14:11.498Z,14.86
2018-09-05T06:16:40.141Z,14.93
2018-09-05T06:19:08.707Z,15.02
2018-09-05T06:21:37.310Z,15.14
2018-09-05T06:24:06.035Z,15.23
2018-09-05T06:26:34.493Z,15.34
2018-09-05T06:29:02.984Z,15.42
2018-09-05T06:31:31.455Z,15.50
2018-09-05T06:34:00.210Z,15.57
2018-09-05T06:36:28.736Z,15.68
2018-09-05T06:38:57.279Z,15.78
2018-09-05T06:41:25.687Z,15.85
2018-09-05T06:43:54.190Z,15.92
2018-09-05T06:46:22.638Z,16.00
2018-09-05T06:48:51.145Z,16.11
2018-09-05T06:51:19.652Z,16.21
2018-09-05T06:53:48.251Z,16.27
2018-09-05T06:56:16.677Z,16.34
2018-09-05T06:58:45.838Z,16.35
2018-09-05T07:01:14.253Z,16.46
2018-09-05T07:03:42.839Z,16.57
2018-09-05T07:06:11.248Z,16.68
2018-09-05T07:08:39.930Z,16.79
2018-09-05T07:11:08.457Z,16.87
2018-09-05T07:13:36.902Z,17.00
2018-09-05T07:16:05.462Z,17.16
2018-09-05T07:18:33.998Z,17.29
2018-09-05T07:21:06.541Z,17.39
2018-09-05T07:23:30.882Z,17.52
2018-09-05T07:25:59.522Z,17.64
2018-09-05T07:28:27.966Z,17.81
2018-09-05T07:30:56.610Z,17.98
2018-09-05T07:33:25.106Z,18.10
2018-09-05T07:35:53.630Z,18.20
2018-09-05T07:38:22.107Z,18.27
2018-09-05T07:40:50.678Z,18.36
2018-09-05T07:43:19.220Z,18.46
2018-09-05T07:45:47.837Z,18.52
2018-09-05T07:48:16.365Z,18.68
2018-09-05T07:50:45.086Z,18.80
2018-09-05T07:53:13.482Z,18.89
2018-09-05T07:55:41.991Z,18.96
2018-09-05T07:58:10.448Z,19.08
2018-09-05T08:00:38.946Z,19.21
2018-09-05T08:03:07.410Z,19.30
2018-09-05T08:05:36.171Z,19.38
2018-09-05T08:08:04.690Z,19.48
2018-09-05T08:10:33.221Z,19.61
2018-09-05T08:13:01.786Z,19.79
2018-09-05T08:15:30.253Z,19.85
2018-09-05T08:17:58.747Z,19.93
2018-09-05T08:20:27.213Z,20.11
2018-09-05T08:22:55.717Z,20.20
2018-09-05T08:25:24.214Z,20.33
2018-09-05T08:27:52.677Z,20.49
2018-09-05T08:30:21.146Z,20.61
2018-09-05T08:32:49.603Z,20.83
2018-09-05T08:35:18.424Z,21.03
2018-09-05T08:37:47.427Z,21.24
2018-09-05T08:40:15.919Z,21.36
2018-09-05T08:42:44.442Z,21.47
2018-09-05T08:45:13.232Z,21.62
2018-09-05T08:47:41.417Z,21.59
2018-09-05T08:50:09.921Z,21.70
2018-09-05T08:52:38.454Z,21.81
2018-09-05T08:55:07.037Z,21.97
2018-09-05T08:57:35.446Z,22.20
2018-09-05T09:00:04.180Z,22.28
2018-09-05T09:02:32.641Z,22.38
2018-09-05T09:05:01.542Z,22.51
2018-09-05T09:07:30.038Z,22.55
2018-09-05T09:09:58.493Z,22.69
2018-09-05T09:12:27.001Z,22.97
2018-09-05T09:14:55.481Z,23.09
2018-09-05T09:17:24.383Z,23.24
2018-09-05T09:19:52.936Z,23.43
2018-09-05T09:22:21.554Z,23.72
2018-09-05T09:24:50.057Z,23.76
2018-09-05T09:27:18.629Z,23.88
2018-09-05T09:29:47.113Z,24.11
2018-09-05T09:32:15.537Z,24.39
2018-09-05T09:34:44.101Z,24.28
2018-09-05T09:37:12.751Z,24.57
2018-09-05T09:39:41.220Z,24.96
2018-09-05T09:42:09.653Z,25.56
2018-09-05T09:44:38.123Z,26.23
2018-09-05T09:47:06.950Z,27.03
2018-09-05T09:49:35.428Z,27.51
2018-09-05T09:52:09.130Z,27.91
2018-09-05T09:54:37.666Z,28.59
2018-09-05T09:57:06.377Z,28.64
2018-09-05T09:59:34.909Z,29.19
2018-09-05T10:02:08.725Z,29.32
2018-09-05T10:04:42.545Z,29.50
2018-09-05T10:08:16.130Z,29.78
2018-09-05T10:10:49.798Z,30.51
2018-09-05T10:13:23.387Z,30.52
2018-09-05T10:15:57.080Z,30.78
2018-09-05T10:18:26.541Z,30.73
2018-09-05T10:20:55.893Z,31.25
2018-09-05T10:23:24.349Z,31.15
2018-09-05T10:25:52.833Z,31.68
2018-09-05T10:28:21.642Z,32.17
2018-09-05T10:30:50.438Z,31.68
2018-09-05T10:33:19.239Z,31.83
2018-09-05T10:37:17.051Z,32.08
2018-09-05T10:39:46.432Z,32.44
2018-09-05T10:42:14.878Z,32.62
2018-09-05T10:44:43.398Z,33.19
2018-09-05T10:47:11.833Z,33.80
2018-09-05T10:49:40.354Z,33.97
2018-09-05T10:52:09.606Z,34.09
2018-09-05T10:54:38.143Z,33.92
2018-09-05T10:57:06.818Z,34.61
2018-09-05T10:59:35.282Z,34.36
2018-09-05T11:02:03.803Z,34.48
2018-09-05T11:04:32.241Z,35.41
2018-09-05T11:07:00.706Z,35.06
2018-09-05T11:09:29.298Z,35.11
2018-09-05T11:11:57.790Z,35.27
2018-09-05T11:14:26.309Z,36.39
2018-09-05T11:16:54.797Z,36.31
2018-09-05T11:19:23.262Z,36.70
2018-09-05T11:21:51.977Z,36.65
2018-09-05T11:24:20.452Z,36.52
2018-09-05T11:26:48.884Z,36.75
2018-09-05T11:29:17.392Z,36.82
2018-09-05T11:31:46.493Z,37.36
2018-09-05T11:34:15.009Z,37.83
2018-09-05T11:36:43.514Z,37.96
2018-09-05T11:39:13.644Z,38.25
2018-09-05T11:41:42.166Z,38.14
2018-09-05T11:44:10.633Z,38.49
2018-09-05T11:46:40.181Z,38.75
2018-09-05T11:49:09.216Z,38.31
2018-09-05T11:51:37.991Z,39.19
2018-09-05T11:54:07.274Z,38.55
2018-09-05T11:56:35.738Z,38.45
2018-09-05T11:59:04.283Z,38.23
2018-09-05T12:01:32.798Z,38.74
2018-09-05T12:04:01.279Z,39.09
2018-09-05T12:06:29.685Z,39.44
2018-09-05T12:08:58.174Z,38.79
2018-09-05T12:11:26.726Z,39.66
2018-09-05T12:13:55.146Z,40.15
2018-09-05T12:16:23.697Z,40.32
2018-09-05T12:18:52.150Z,41.17
2018-09-05T12:21:20.594Z,40.88
2018-09-05T12:23:49.084Z,40.85
2018-09-05T12:26:17.705Z,41.86
2018-09-05T12:28:46.874Z,41.41
2018-09-05T12:31:15.425Z,42.13
2018-09-05T12:33:43.922Z,41.41
2018-09-05T12:36:12.434Z,41.82
2018-09-05T12:38:40.865Z,41.00
2018-09-05T12:41:09.570Z,41.39
2018-09-05T12:43:38.041Z,42.81
2018-09-05T12:46:06.690Z,42.80
2018-09-05T12:48:35.105Z,42.75
2018-09-05T12:51:03.689Z,43.45
2018-09-05T12:53:32.170Z,42.59
2018-09-05T12:56:00.678Z,43.88
2018-09-05T12:58:29.134Z,43.99
2018-09-05T13:00:57.662Z,44.15
2018-09-05T13:03:26.142Z,44.31
2018-09-05T13:05:54.614Z,43.53
2018-09-05T13:08:23.098Z,43.65
2018-09-05T13:10:51.566Z,43.40
2018-09-05T13:13:20.022Z,44.26
2018-09-05T13:15:48.545Z,44.68
2018-09-05T13:18:17.030Z,45.14
2018-09-05T13:20:46.425Z,45.32
2018-09-05T13:23:14.897Z,45.08
2018-09-05T13:25:43.288Z,44.90
2018-09-05T13:28:11.757Z,44.91
2018-09-05T13:30:40.233Z,44.74
2018-09-05T13:33:08.920Z,45.13
2018-09-05T13:35:37.446Z,45.32
2018-09-05T13:38:06.003Z,44.48
2018-09-05T13:40:34.522Z,44.28
2018-09-05T13:43:03.011Z,44.90
2018-09-05T13:45:31.437Z,45.82
2018-09-05T13:47:59.942Z,45.41
2018-09-05T13:50:28.389Z,45.24
2018-09-05T13:52:56.936Z,46.00
2018-09-05T13:55:25.345Z,45.49
2018-09-05T13:57:53.849Z,46.62
2018-09-05T14:00:22.306Z,45.56
2018-09-05T14:02:50.868Z,45.60
2018-09-05T14:05:19.269Z,46.45
2018-09-05T14:07:48.676Z,46.77
2018-09-05T14:10:17.593Z,47.00
2018-09-05T14:12:46.958Z,46.86
2018-09-05T14:15:15.477Z,45.95
2018-09-05T14:17:44.085Z,46.48
2018-09-05T14:20:12.589Z,46.79
2018-09-05T14:22:41.042Z,46.89
2018-09-05T14:25:09.530Z,46.61
2018-09-05T14:27:38.030Z,46.55
2018-09-05T14:30:06.605Z,46.56
2018-09-05T14:32:35.038Z,46.32
2018-09-05T14:35:03.565Z,46.59
2018-09-05T14:37:31.995Z,47.67
2018-09-05T14:40:00.508Z,47.26
2018-09-05T14:42:28.949Z,46.75
2018-09-05T14:44:57.526Z,45.46
2018-09-05T14:47:26.122Z,45.32
2018-09-05T14:49:54.627Z,45.33
2018-09-05T14:52:23.083Z,45.64
2018-09-05T14:54:51.605Z,45.57
2018-09-05T14:57:20.053Z,45.85
2018-09-05T14:59:48.554Z,47.41
2018-09-05T15:02:17.014Z,47.77
2018-09-05T15:04:46.588Z,47.40
2018-09-05T15:07:15.008Z,46.09
2018-09-05T15:09:43.506Z,45.46
2018-09-05T15:12:12.030Z,46.48
2018-09-05T15:14:40.566Z,46.04
2018-09-05T15:17:09.134Z,45.43
2018-09-05T15:19:37.722Z,46.59
2018-09-05T15:22:06.346Z,47.01
2018-09-05T15:24:34.888Z,46.98
2018-09-05T15:27:03.425Z,46.00
2018-09-05T15:29:31.882Z,45.37
2018-09-05T15:32:00.598Z,45.51
2018-09-05T15:34:29.326Z,45.60
2018-09-05T15:36:57.978Z,46.17
2018-09-05T15:39:27.085Z,46.33
2018-09-05T15:41:55.943Z,46.55
2018-09-05T15:44:24.826Z,46.62
2018-09-05T15:46:53.396Z,46.19
2018-09-05T15:49:22.050Z,45.71
2018-09-05T15:51:54.790Z,46.03
2018-09-05T15:54:24.808Z,46.32
2018-09-05T15:56:54.118Z,45.69
2018-09-05T15:59:23.265Z,45.41
2018-09-05T16:01:51.951Z,45.27
2018-09-05T16:04:20.427Z,45.27
2018-09-05T16:06:48.928Z,44.72
2018-09-05T16:09:17.378Z,43.65
2018-09-05T16:11:46.198Z,44.42
2018-09-05T16:14:14.654Z,43.85
2018-09-05T16:16:43.181Z,43.00
2018-09-05T16:19:11.614Z,42.20
2018-09-05T16:21:40.133Z,43.23
2018-09-05T16:24:08.617Z,42.19
2018-09-05T16:26:37.095Z,43.40
2018-09-05T16:29:05.690Z,43.31
2018-09-05T16:31:34.237Z,43.00
2018-09-05T16:34:02.781Z,42.75
2018-09-05T16:36:31.413Z,41.82
2018-09-05T16:38:59.877Z,41.95
2018-09-05T16:41:28.410Z,41.62
2018-09-05T16:43:56.838Z,41.02
2018-09-05T16:46:25.678Z,39.22
2018-09-05T16:48:54.124Z,38.69
2018-09-05T16:51:22.662Z,36.24
2018-09-05T16:53:51.230Z,34.05
2018-09-05T16:56:19.763Z,32.88
2018-09-05T16:58:48.955Z,31.70
2018-09-05T17:01:17.470Z,30.86
2018-09-05T17:03:46.253Z,30.05
2018-09-05T17:06:14.721Z,29.59
2018-09-05T17:08:43.181Z,29.31
2018-09-05T17:11:11.752Z,29.02
2018-09-05T17:13:40.253Z,28.76
2018-09-05T17:16:09.053Z,28.41
2018-09-05T17:18:37.679Z,28.03
2018-09-05T17:21:06.325Z,27.82
2018-09-05T17:23:34.798Z,27.62
2018-09-05T17:26:03.279Z,27.53
2018-09-05T17:28:32.034Z,27.33
2018-09-05T17:31:00.833Z,27.22
2018-09-05T17:33:29.517Z,27.05
2018-09-05T17:35:58.127Z,26.87
2018-09-05T17:38:26.697Z,26.67
2018-09-05T17:40:55.210Z,26.48
2018-09-05T17:43:23.733Z,26.25
2018-09-05T17:45:52.172Z,26.04
2018-09-05T17:48:20.798Z,25.84
2018-09-05T17:50:49.349Z,25.62
2018-09-05T17:53:18.185Z,25.39
2018-09-05T17:55:47.033Z,25.18
2018-09-05T17:58:16.642Z,24.94
2018-09-05T18:00:45.349Z,24.74
2018-09-05T18:03:13.802Z,24.59
2018-09-05T18:05:42.274Z,24.42
2018-09-05T18:08:10.845Z,24.24
2018-09-05T18:10:39.411Z,24.10
2018-09-05T18:13:08.037Z,24.05
2018-09-05T18:15:36.744Z,23.85
2018-09-05T18:18:05.321Z,23.66
2018-09-05T18:20:33.953Z,23.51
2018-09-05T18:23:02.469Z,23.37
2018-09-05T18:25:30.935Z,23.32
2018-09-05T18:27:59.481Z,23.22
2018-09-05T18:30:27.903Z,23.20
2018-09-05T18:32:56.413Z,23.17
2018-09-05T18:35:24.950Z,23.15
2018-09-05T18:37:53.486Z,23.09
2018-09-05T18:40:21.941Z,22.99
2018-09-05T18:42:50.410Z,22.88
2018-09-05T18:45:18.885Z,22.77
2018-09-05T18:47:47.566Z,22.70
2018-09-05T18:50:16.041Z,22.61
2018-09-05T18:52:44.565Z,22.50
2018-09-05T18:55:13.011Z,22.37
2018-09-05T19:00:08.914Z,22.22
2018-09-05T19:02:37.497Z,22.24
2018-09-05T19:05:05.993Z,22.33
2018-09-05T19:07:34.397Z,22.32
2018-09-05T19:10:02.902Z,22.19
2018-09-05T19:12:31.362Z,22.09
2018-09-05T19:15:00.039Z,21.95
2018-09-05T19:17:28.534Z,21.81
2018-09-05T19:19:56.998Z,21.68
2018-09-05T19:22:25.621Z,21.55
2018-09-05T19:24:54.115Z,21.44
2018-09-05T19:27:22.745Z,21.41
2018-09-05T19:29:51.254Z,21.33
2018-09-05T19:32:19.629Z,21.31
2018-09-05T19:34:48.442Z,21.23
2018-09-05T19:37:16.929Z,21.15
2018-09-05T19:39:45.468Z,21.12
2018-09-05T19:42:14.205Z,21.05
2018-09-05T19:44:42.666Z,20.98
2018-09-05T19:47:11.173Z,20.87
2018-09-05T19:49:39.643Z,20.81
2018-09-05T19:52:08.222Z,20.72
2018-09-05T19:54:36.677Z,20.64
2018-09-05T19:57:05.262Z,20.58
2018-09-05T19:59:33.810Z,20.56
2018-09-05T20:02:02.279Z,20.49
2018-09-05T20:04:30.735Z,20.41
2018-09-05T20:06:59.173Z,20.38
2018-09-05T20:09:27.678Z,20.33
2018-09-05T20:11:56.158Z,20.28
2018-09-05T20:14:24.725Z,20.21
2018-09-05T20:16:53.143Z,20.14
2018-09-05T20:19:21.670Z,20.07
2018-09-05T20:21:50.099Z,20.00
2018-09-05T20:24:18.663Z,19.93
2018-09-05T20:26:47.241Z,19.90
2018-09-05T20:29:15.745Z,19.88
2018-09-05T20:31:44.361Z,19.85
2018-09-05T20:34:12.798Z,19.86
2018-09-05T20:36:42.373Z,19.80
2018-09-05T20:39:12.187Z,19.78
2018-09-05T20:41:40.934Z,19.74
2018-09-05T20:44:10.701Z,19.69
2018-09-05T20:46:39.638Z,19.67
2018-09-05T20:49:08.133Z,19.59
2018-09-05T20:51:36.612Z,19.52
2018-09-05T20:54:05.222Z,19.46
2018-09-05T20:56:34.678Z,19.48
2018-09-05T20:59:03.170Z,19.48
2018-09-05T21:01:31.674Z,19.44
2018-09-05T21:04:00.103Z,19.40
2018-09-05T21:06:28.684Z,19.29
2018-09-05T21:08:57.210Z,19.19
2018-09-05T21:11:25.673Z,19.09
2018-09-05T21:13:54.138Z,19.02
2018-09-05T21:16:22.608Z,18.95
2018-09-05T21:18:51.086Z,18.96
2018-09-05T21:21:19.641Z,18.87
2018-09-05T21:23:48.430Z,18.78
2018-09-05T21:26:16.898Z,18.72
2018-09-05T21:28:45.657Z,18.68
2018-09-05T21:31:14.297Z,18.68
2018-09-05T21:33:42.869Z,18.65
2018-09-05T21:36:11.515Z,18.67
2018-09-05T21:38:40.054Z,18.62
2018-09-05T21:41:08.582Z,18.55
2018-09-05T21:43:37.137Z,18.48
2018-09-05T21:46:06.062Z,18.43
2018-09-05T21:48:34.645Z,18.36
2018-09-05T21:51:03.114Z,18.28
2018-09-05T21:53:31.666Z,18.25
2018-09-05T21:56:00.178Z,18.25
2018-09-05T21:58:28.633Z,18.26
2018-09-05T22:00:57.152Z,18.22
2018-09-05T22:03:26.274Z,18.20
2018-09-05T22:05:54.877Z,18.17
2018-09-05T22:08:23.290Z,18.16
2018-09-05T22:10:51.761Z,18.14
2018-09-05T22:13:20.397Z,18.09
2018-09-05T22:15:49.018Z,18.07
2018-09-05T22:18:18.405Z,18.05
2018-09-05T22:20:48.148Z,18.04
2018-09-05T22:23:16.699Z,17.98
2018-09-05T22:25:46.990Z,17.94
2018-09-05T22:28:15.461Z,17.91
2018-09-05T22:30:43.924Z,17.87
2018-09-05T22:33:12.500Z,17.82
2018-09-05T22:35:40.965Z,17.78
2018-09-05T22:38:09.471Z,17.78
2018-09-05T22:40:43.223Z,17.79
2018-09-05T22:43:22.925Z,17.73
2018-09-05T22:46:02.685Z,17.68
2018-09-05T22:50:55.395Z,17.65
2018-09-05T22:53:41.165Z,17.57
2018-09-05T22:56:27.059Z,17.51
2018-09-05T22:59:13.820Z,17.53
2018-09-05T23:01:57.972Z,17.49
2018-09-05T23:04:38.531Z,17.46
2018-09-05T23:10:25.163Z,17.40
2018-09-05T23:13:04.834Z,17.39
2018-09-05T23:15:44.613Z,17.39
2018-09-05T23:18:24.407Z,17.40
2018-09-05T23:21:02.799Z,17.37
2018-09-05T23:23:42.443Z,17.38
2018-09-05T23:26:11.114Z,17.36
2018-09-05T23:28:40.404Z,17.32
2018-09-05T23:31:08.818Z,17.22
2018-09-05T23:33:37.598Z,17.11
2018-09-05T23:36:06.738Z,16.98
2018-09-05T23:38:35.174Z,16.92
2018-09-05T23:41:03.791Z,16.90
2018-09-05T23:43:32.250Z,16.89
2018-09-05T23:46:00.745Z,16.89
2018-09-05T23:48:29.234Z,16.86
2018-09-05T23:50:57.719Z,16.80
2018-09-05T23:53:26.358Z,16.78
2018-09-05T23:55:55.104Z,16.78
2018-09-05T23:58:24.063Z,16.80
